Time;durP1;ratioP1;P1;durP2;ratioP2;P2;SDS_P1;SDS_P2;PMS_P1;PMS_P2;Temp;Humidity;BMP_temperature;BMP_pressure;BME280_temperature;BME280_humidity;BME280_pressure;Samples;Min_cycle;Max_cycle;Signal;HPM_P1;HPM_P2
2021/01/08 00:00:09;;;;;;;25.67;10.15;;;;;;;;;;5063447;28;20068;-59
2021/01/08 00:02:35;;;;;;;25.05;9.48;;;;;;;;;;5061466;28;20033;-59
2021/01/08 00:05:02;;;;;;;24.17;9.68;;;;;;;;;;5058518;28;20470;-59
2021/01/08 00:07:28;;;;;;;28.00;9.95;;;;;;;;;;5067710;28;20643;-59
2021/01/08 00:09:54;;;;;;;27.80;10.02;;;;;;;;;;5051298;28;20622;-59
2021/01/08 00:12:20;;;;;;;26.02;10.10;;;;;;;;;;5042575;28;20032;-58
2021/01/08 00:14:46;;;;;;;28.13;10.25;;;;;;;;;;5069353;28;20119;-59
2021/01/08 00:17:12;;;;;;;25.25;10.27;;;;;;;;;;5066372;28;20241;-59
2021/01/08 00:19:39;;;;;;;25.67;10.38;;;;;;;;;;5063014;28;21536;-59
2021/01/08 00:22:05;;;;;;;23.58;10.35;;;;;;;;;;5059992;28;20040;-59
2021/01/08 00:24:31;;;;;;;23.50;9.40;;;;;;;;;;5060250;28;20037;-59
2021/01/08 00:27:02;;;;;;;28.10;10.45;;;;;;;;;;5065098;28;20059;-59
2021/01/08 00:29:28;;;;;;;25.67;10.18;;;;;;;;;;5057545;28;20045;-59
2021/01/08 00:31:54;;;;;;;25.85;9.52;;;;;;;;;;5060368;28;20040;-59
2021/01/08 00:34:20;;;;;;;23.05;9.82;;;;;;;;;;5067493;28;20554;-59
2021/01/08 00:36:49;;;;;;;29.80;10.45;;;;;;;;;;5066463;28;20226;-59
2021/01/08 00:39:16;;;;;;;23.75;9.88;;;;;;;;;;5059551;28;20573;-59
2021/01/08 00:41:42;;;;;;;25.67;10.32;;;;;;;;;;5061920;28;20036;-59
2021/01/08 00:44:08;;;;;;;25.05;9.55;;;;;;;;;;5064800;28;20032;-59
2021/01/08 00:46:34;;;;;;;27.02;9.68;;;;;;;;;;5061022;28;20039;-58
2021/01/08 00:49:01;;;;;;;28.27;11.07;;;;;;;;;;5051987;28;20089;-58
2021/01/08 00:51:27;;;;;;;28.52;9.85;;;;;;;;;;5056075;28;20024;-59
2021/01/08 00:53:53;;;;;;;27.55;9.85;;;;;;;;;;5060073;28;20547;-59
2021/01/08 00:56:19;;;;;;;27.45;9.73;;;;;;;;;;5061670;28;20071;-59
2021/01/08 00:58:46;;;;;;;26.63;10.20;;;;;;;;;;5057537;28;20045;-59
2021/01/08 01:01:12;;;;;;;27.33;10.27;;;;;;;;;;5057717;28;20051;-59
2021/01/08 01:03:38;;;;;;;26.75;10.02;;;;;;;;;;5061410;28;20375;-59
2021/01/08 01:06:04;;;;;;;28.48;10.30;;;;;;;;;;5052445;28;20522;-59
2021/01/08 01:08:30;;;;;;;28.95;9.50;;;;;;;;;;5054306;28;20047;-59
2021/01/08 01:10:56;;;;;;;31.38;10.10;;;;;;;;;;5056760;28;20033;-59
2021/01/08 01:13:22;;;;;;;26.60;9.82;;;;;;;;;;5053579;28;20379;-59
2021/01/08 01:15:48;;;;;;;26.25;9.75;;;;;;;;;;5056115;28;20036;-59
2021/01/08 01:18:14;;;;;;;26.73;9.80;;;;;;;;;;5059039;28;20041;-59
2021/01/08 01:20:40;;;;;;;27.08;9.35;;;;;;;;;;5053839;28;20047;-58
2021/01/08 01:23:06;;;;;;;27.67;10.02;;;;;;;;;;5057297;28;20063;-59
2021/01/08 01:25:32;;;;;;;29.67;10.20;;;;;;;;;;5051925;28;20041;-59
2021/01/08 01:27:58;;;;;;;26.50;9.65;;;;;;;;;;5055068;28;20106;-58
2021/01/08 01:30:24;;;;;;;30.85;10.23;;;;;;;;;;5046203;28;20157;-60
2021/01/08 01:32:50;;;;;;;27.48;9.98;;;;;;;;;;5056112;28;20082;-59
2021/01/08 01:35:16;;;;;;;28.85;9.55;;;;;;;;;;5057448;28;20386;-59
2021/01/08 01:37:42;;;;;;;25.60;9.38;;;;;;;;;;5057001;28;20041;-59
2021/01/08 01:40:09;;;;;;;27.63;10.27;;;;;;;;;;5056704;28;20040;-59
2021/01/08 01:42:35;;;;;;;27.00;9.57;;;;;;;;;;5056481;28;20608;-59
2021/01/08 01:45:01;;;;;;;26.85;10.10;;;;;;;;;;5057082;28;20483;-59
2021/01/08 01:47:30;;;;;;;28.88;10.82;;;;;;;;;;5058242;28;20115;-59
2021/01/08 01:49:56;;;;;;;26.80;10.30;;;;;;;;;;5052586;28;20573;-59
2021/01/08 01:52:22;;;;;;;30.10;10.85;;;;;;;;;;5039203;28;20041;-59
2021/01/08 01:54:48;;;;;;;29.58;10.60;;;;;;;;;;5048929;28;20662;-59
2021/01/08 01:57:14;;;;;;;26.65;10.05;;;;;;;;;;5054538;28;20036;-59
2021/01/08 01:59:40;;;;;;;31.67;11.75;;;;;;;;;;5055913;28;20514;-59
2021/01/08 02:02:12;;;;;;;26.05;10.05;;;;;;;;;;5032052;28;20325;-59
2021/01/08 02:04:39;;;;;;;24.58;10.05;;;;;;;;;;5060233;28;20033;-59
2021/01/08 02:07:05;;;;;;;26.60;10.10;;;;;;;;;;5059266;28;20136;-60
2021/01/08 02:09:31;;;;;;;28.48;11.05;;;;;;;;;;5045839;28;20047;-59
2021/01/08 02:11:58;;;;;;;28.90;10.77;;;;;;;;;;5056820;28;20094;-59
2021/01/08 02:14:26;;;;;;;26.17;10.48;;;;;;;;;;5059589;28;20036;-59
2021/01/08 02:16:53;;;;;;;30.92;10.85;;;;;;;;;;5053225;28;20379;-59
2021/01/08 02:19:25;;;;;;;32.08;11.15;;;;;;;;;;5061020;28;20690;-59
2021/01/08 02:21:58;;;;;;;34.63;11.07;;;;;;;;;;5060717;28;20101;-59
2021/01/08 02:24:33;;;;;;;31.92;12.50;;;;;;;;;;5066844;28;20032;-60
2021/01/08 02:26:59;;;;;;;30.77;11.48;;;;;;;;;;5054362;28;20398;-59
2021/01/08 02:29:26;;;;;;;27.83;11.50;;;;;;;;;;5053991;28;20063;-59
2021/01/08 02:31:52;;;;;;;32.47;11.75;;;;;;;;;;5058454;28;20440;-59
2021/01/08 02:34:18;;;;;;;31.50;11.60;;;;;;;;;;5067223;28;20033;-59
2021/01/08 02:36:45;;;;;;;26.33;11.27;;;;;;;;;;5058655;28;20041;-59
2021/01/08 02:39:14;;;;;;;34.67;11.45;;;;;;;;;;5061318;28;20044;-59
2021/01/08 02:41:44;;;;;;;27.60;11.25;;;;;;;;;;5053931;28;20111;-59
2021/01/08 02:44:13;;;;;;;31.70;11.65;;;;;;;;;;5057223;28;20024;-59
2021/01/08 02:46:40;;;;;;;27.35;10.90;;;;;;;;;;5041493;28;20028;-59
2021/01/08 02:49:06;;;;;;;33.13;12.25;;;;;;;;;;5055200;28;20219;-59
2021/01/08 02:51:32;;;;;;;28.45;11.88;;;;;;;;;;5039389;28;22789;-59
2021/01/08 02:53:58;;;;;;;32.20;11.65;;;;;;;;;;5057877;28;20067;-59
2021/01/08 02:56:27;;;;;;;34.22;11.48;;;;;;;;;;5051521;28;20059;-59
2021/01/08 02:58:55;;;;;;;30.73;11.85;;;;;;;;;;5054593;28;20498;-59
2021/01/08 03:01:22;;;;;;;29.58;11.35;;;;;;;;;;5053460;28;20070;-59
2021/01/08 03:03:48;;;;;;;30.00;11.80;;;;;;;;;;5055624;28;20084;-59
2021/01/08 03:06:16;;;;;;;31.58;11.35;;;;;;;;;;5060345;28;20045;-59
2021/01/08 03:08:42;;;;;;;30.50;11.32;;;;;;;;;;5061009;28;20036;-59
2021/01/08 03:11:09;;;;;;;31.13;11.52;;;;;;;;;;5053887;28;20040;-59
2021/01/08 03:13:35;;;;;;;30.58;11.48;;;;;;;;;;5056925;28;20081;-59
2021/01/08 03:16:01;;;;;;;27.85;11.25;;;;;;;;;;5060730;28;20043;-59
2021/01/08 03:18:27;;;;;;;35.88;13.15;;;;;;;;;;5055036;28;20599;-59
2021/01/08 03:20:53;;;;;;;32.22;12.05;;;;;;;;;;5030701;28;20666;-59
2021/01/08 03:23:19;;;;;;;32.30;12.65;;;;;;;;;;5059603;28;20045;-59
2021/01/08 03:25:45;;;;;;;32.58;12.57;;;;;;;;;;5054751;28;20151;-59
2021/01/08 03:28:11;;;;;;;30.45;12.20;;;;;;;;;;5040463;28;20062;-59
2021/01/08 03:30:37;;;;;;;30.23;12.70;;;;;;;;;;5038963;28;20044;-59
2021/01/08 03:33:03;;;;;;;35.85;12.40;;;;;;;;;;5052917;28;20050;-59
2021/01/08 03:35:29;;;;;;;32.55;12.70;;;;;;;;;;5063151;28;20044;-59
2021/01/08 03:37:55;;;;;;;33.80;12.30;;;;;;;;;;5059221;28;23115;-59
2021/01/08 03:40:21;;;;;;;35.17;12.65;;;;;;;;;;5057030;28;20037;-59
2021/01/08 03:42:47;;;;;;;33.58;12.32;;;;;;;;;;5053787;28;20056;-59
2021/01/08 03:45:13;;;;;;;32.70;12.45;;;;;;;;;;5060480;28;20033;-59
2021/01/08 03:47:39;;;;;;;36.97;13.70;;;;;;;;;;5054513;28;20421;-59
2021/01/08 03:50:05;;;;;;;31.55;11.95;;;;;;;;;;5051865;28;20047;-59
2021/01/08 03:52:31;;;;;;;38.13;12.88;;;;;;;;;;5055509;28;20047;-59
2021/01/08 03:54:57;;;;;;;32.80;12.15;;;;;;;;;;5038740;28;20033;-59
2021/01/08 03:57:23;;;;;;;32.05;11.68;;;;;;;;;;5052658;28;20363;-59
2021/01/08 03:59:49;;;;;;;36.05;12.10;;;;;;;;;;5054172;28;20035;-59
2021/01/08 04:02:15;;;;;;;34.38;12.27;;;;;;;;;;5055115;28;20504;-59
2021/01/08 04:04:41;;;;;;;35.60;12.07;;;;;;;;;;5041059;28;20043;-59
2021/01/08 04:07:07;;;;;;;35.10;13.23;;;;;;;;;;5062471;28;20032;-59
2021/01/08 04:09:35;;;;;;;31.48;11.85;;;;;;;;;;5054217;28;20047;-59
2021/01/08 04:12:01;;;;;;;36.40;12.65;;;;;;;;;;5061134;28;20037;-59
2021/01/08 04:14:27;;;;;;;37.38;13.27;;;;;;;;;;5062057;28;20043;-59
2021/01/08 04:16:53;;;;;;;33.75;11.65;;;;;;;;;;5054932;28;20467;-59
2021/01/08 04:19:19;;;;;;;34.50;12.82;;;;;;;;;;5054897;28;20043;-59
2021/01/08 04:21:46;;;;;;;37.33;13.38;;;;;;;;;;5062022;28;20028;-59
2021/01/08 04:24:12;;;;;;;37.47;13.32;;;;;;;;;;5058319;28;20705;-59
2021/01/08 04:26:38;;;;;;;33.17;12.85;;;;;;;;;;5062480;28;20075;-59
2021/01/08 04:29:04;;;;;;;36.53;13.20;;;;;;;;;;5059017;28;20074;-59
2021/01/08 04:31:30;;;;;;;39.53;13.88;;;;;;;;;;5049794;28;20033;-59
2021/01/08 04:33:56;;;;;;;33.58;12.88;;;;;;;;;;5058220;28;20055;-59
2021/01/08 04:36:22;;;;;;;32.15;11.85;;;;;;;;;;5058761;28;20036;-59
2021/01/08 04:38:48;;;;;;;37.55;12.80;;;;;;;;;;5053932;28;20129;-60
2021/01/08 04:41:14;;;;;;;37.33;12.90;;;;;;;;;;5056909;28;20044;-59
2021/01/08 04:43:41;;;;;;;36.75;13.00;;;;;;;;;;5057344;28;20060;-59
2021/01/08 04:46:08;;;;;;;35.90;12.40;;;;;;;;;;5060682;28;20041;-59
2021/01/08 04:48:35;;;;;;;33.33;12.27;;;;;;;;;;5055068;28;20102;-60
2021/01/08 04:51:03;;;;;;;34.15;12.55;;;;;;;;;;5056735;28;20561;-59
2021/01/08 04:53:30;;;;;;;36.13;13.10;;;;;;;;;;5063516;28;20040;-59
2021/01/08 04:55:57;;;;;;;32.70;12.52;;;;;;;;;;5059241;28;20120;-61
2021/01/08 04:58:25;;;;;;;36.58;12.20;;;;;;;;;;5056599;28;20047;-60
2021/01/08 05:00:51;;;;;;;35.38;12.90;;;;;;;;;;5039124;28;20128;-59
2021/01/08 05:03:18;;;;;;;33.63;12.48;;;;;;;;;;5056169;28;20043;-60
2021/01/08 05:05:44;;;;;;;34.65;13.27;;;;;;;;;;5046954;28;20032;-59
2021/01/08 05:08:10;;;;;;;35.28;12.57;;;;;;;;;;5060846;28;20044;-59
2021/01/08 05:10:37;;;;;;;34.58;12.68;;;;;;;;;;5054899;28;20619;-60
2021/01/08 05:13:03;;;;;;;38.85;13.15;;;;;;;;;;5052594;28;20844;-59
2021/01/08 05:15:29;;;;;;;34.03;13.32;;;;;;;;;;5054562;28;20041;-60
2021/01/08 05:17:55;;;;;;;34.38;13.10;;;;;;;;;;5052088;28;20048;-59
2021/01/08 05:20:21;;;;;;;37.13;12.38;;;;;;;;;;5046337;28;20071;-59
2021/01/08 05:22:51;;;;;;;37.35;13.82;;;;;;;;;;5048287;28;20119;-59
2021/01/08 05:25:17;;;;;;;40.10;13.85;;;;;;;;;;5047657;28;20573;-59
2021/01/08 05:27:43;;;;;;;41.10;13.75;;;;;;;;;;5048850;28;20052;-59
2021/01/08 05:30:26;;;;;;;38.55;12.80;;;;;;;;;;5056865;28;20040;-59
2021/01/08 05:32:59;;;;;;;40.22;13.90;;;;;;;;;;5049744;28;20289;-59
2021/01/08 05:35:25;;;;;;;37.88;13.82;;;;;;;;;;5045746;28;20095;-59
2021/01/08 05:37:54;;;;;;;42.72;13.57;;;;;;;;;;5049187;28;20044;-59
2021/01/08 05:40:26;;;;;;;37.28;13.55;;;;;;;;;;5044489;28;20033;-59
2021/01/08 05:42:53;;;;;;;47.53;14.65;;;;;;;;;;5048691;28;20797;-59
2021/01/08 05:45:20;;;;;;;38.60;13.63;;;;;;;;;;5044405;28;20537;-59
2021/01/08 05:47:47;;;;;;;42.40;13.40;;;;;;;;;;5047363;28;20040;-59
2021/01/08 05:50:14;;;;;;;41.15;14.07;;;;;;;;;;5046580;28;20040;-59
2021/01/08 05:52:42;;;;;;;46.88;14.52;;;;;;;;;;5024514;28;20056;-60
2021/01/08 05:55:12;;;;;;;42.05;14.35;;;;;;;;;;5052385;28;20043;-59
2021/01/08 05:57:38;;;;;;;48.15;14.68;;;;;;;;;;5047022;28;20193;-59
2021/01/08 06:00:07;;;;;;;43.30;14.32;;;;;;;;;;5052830;28;20032;-59
2021/01/08 06:02:33;;;;;;;47.78;16.23;;;;;;;;;;5052390;28;20051;-60
2021/01/08 06:04:59;;;;;;;46.38;16.13;;;;;;;;;;5049119;28;20048;-59
2021/01/08 06:07:28;;;;;;;46.63;14.75;;;;;;;;;;5040975;28;20131;-59
2021/01/08 06:09:55;;;;;;;49.70;15.18;;;;;;;;;;5049325;28;20048;-59
2021/01/08 06:12:21;;;;;;;44.53;15.52;;;;;;;;;;5050957;28;20123;-59
2021/01/08 06:14:48;;;;;;;48.55;14.82;;;;;;;;;;5054446;28;20315;-59
2021/01/08 06:17:18;;;;;;;48.03;14.57;;;;;;;;;;5053217;28;20036;-59
2021/01/08 06:19:45;;;;;;;43.10;14.48;;;;;;;;;;5045784;28;20991;-59
2021/01/08 06:22:11;;;;;;;48.65;15.77;;;;;;;;;;5052962;28;20123;-59
2021/01/08 06:24:37;;;;;;;44.88;14.25;;;;;;;;;;5056083;28;20072;-59
2021/01/08 06:27:03;;;;;;;50.63;15.25;;;;;;;;;;5058957;28;20060;-59
2021/01/08 06:29:33;;;;;;;48.47;14.05;;;;;;;;;;5056420;28;20383;-60
2021/01/08 06:32:09;;;;;;;43.50;14.50;;;;;;;;;;5058787;28;20132;-60
2021/01/08 06:34:44;;;;;;;50.90;14.38;;;;;;;;;;5049547;28;20043;-59
2021/01/08 06:37:11;;;;;;;51.63;14.70;;;;;;;;;;5065260;28;20036;-60
2021/01/08 06:39:38;;;;;;;47.05;14.55;;;;;;;;;;5063475;28;20036;-59
2021/01/08 06:42:05;;;;;;;47.90;15.07;;;;;;;;;;5063855;28;20547;-59
2021/01/08 06:44:31;;;;;;;48.22;14.70;;;;;;;;;;5055101;28;23733;-59
2021/01/08 06:46:58;;;;;;;45.08;14.05;;;;;;;;;;5057505;28;20032;-59
2021/01/08 06:49:24;;;;;;;47.53;14.32;;;;;;;;;;5058029;28;20039;-59
2021/01/08 06:51:50;;;;;;;48.67;15.45;;;;;;;;;;5047739;28;20043;-59
2021/01/08 06:54:16;;;;;;;44.72;14.32;;;;;;;;;;5058549;28;20047;-59
2021/01/08 06:56:42;;;;;;;45.90;13.30;;;;;;;;;;5031201;28;20470;-59
2021/01/08 06:59:12;;;;;;;44.08;14.50;;;;;;;;;;5054131;28;20029;-59
2021/01/08 07:01:58;;;;;;;46.63;14.70;;;;;;;;;;5048451;28;20043;-59
2021/01/08 07:04:25;;;;;;;48.70;15.27;;;;;;;;;;5055661;28;20682;-59
2021/01/08 07:06:51;;;;;;;53.08;15.07;;;;;;;;;;5062431;28;20043;-59
2021/01/08 07:09:17;;;;;;;49.35;15.80;;;;;;;;;;5059695;28;20498;-59
2021/01/08 07:11:43;;;;;;;52.40;14.52;;;;;;;;;;5062708;28;20039;-59
2021/01/08 07:14:22;;;;;;;44.15;12.90;;;;;;;;;;5071753;28;20067;-59
2021/01/08 07:16:49;;;;;;;55.67;13.98;;;;;;;;;;5061151;28;20136;-59
2021/01/08 07:19:17;;;;;;;50.97;13.93;;;;;;;;;;5051686;28;20430;-59
2021/01/08 07:21:52;;;;;;;56.95;13.95;;;;;;;;;;5042890;28;20138;-59
2021/01/08 07:24:19;;;;;;;51.55;13.20;;;;;;;;;;5049988;28;20049;-59
2021/01/08 07:26:46;;;;;;;54.17;14.32;;;;;;;;;;5060448;28;20091;-59
2021/01/08 07:29:12;;;;;;;50.90;13.55;;;;;;;;;;5058691;28;20032;-63
2021/01/08 07:31:41;;;;;;;49.97;14.77;;;;;;;;;;5033706;28;20558;-64
2021/01/08 07:34:08;;;;;;;49.40;13.88;;;;;;;;;;5032312;28;20055;-60
2021/01/08 07:36:35;;;;;;;57.33;13.07;;;;;;;;;;5050720;28;20044;-59
2021/01/08 07:39:01;;;;;;;51.60;14.02;;;;;;;;;;5046426;28;20487;-59
2021/01/08 07:41:38;;;;;;;59.58;14.40;;;;;;;;;;5047657;28;20115;-59
2021/01/08 07:44:05;;;;;;;60.03;12.45;;;;;;;;;;5058533;28;20048;-59
2021/01/08 07:46:32;;;;;;;59.13;13.70;;;;;;;;;;5052946;28;20610;-59
2021/01/08 07:48:59;;;;;;;51.80;11.98;;;;;;;;;;5035914;28;20052;-59
2021/01/08 07:51:45;;;;;;;66.03;13.73;;;;;;;;;;5039348;28;20040;-59
2021/01/08 07:54:12;;;;;;;62.58;13.45;;;;;;;;;;5049460;28;20049;-59
2021/01/08 07:56:58;;;;;;;53.10;12.90;;;;;;;;;;5047301;28;20592;-59
2021/01/08 07:59:29;;;;;;;50.88;13.35;;;;;;;;;;5058177;28;20036;-58
2021/01/08 08:01:55;;;;;;;50.75;12.52;;;;;;;;;;5032782;28;20048;-59
2021/01/08 08:04:22;;;;;;;45.22;12.20;;;;;;;;;;5044058;28;20032;-58
2021/01/08 08:06:50;;;;;;;55.58;13.23;;;;;;;;;;5054351;28;20038;-59
2021/01/08 08:09:19;;;;;;;51.65;12.75;;;;;;;;;;5040784;28;20040;-59
2021/01/08 08:11:45;;;;;;;60.38;13.55;;;;;;;;;;5067374;28;20425;-59
2021/01/08 08:14:15;;;;;;;47.90;13.43;;;;;;;;;;5060450;28;20048;-59
2021/01/08 08:16:42;;;;;;;55.95;13.60;;;;;;;;;;5059000;28;20043;-59
2021/01/08 08:19:09;;;;;;;55.75;14.05;;;;;;;;;;5066631;28;20048;-58
2021/01/08 08:21:35;;;;;;;63.75;13.77;;;;;;;;;;5068206;28;20048;-59
2021/01/08 08:24:02;;;;;;;66.50;12.88;;;;;;;;;;5062303;28;20536;-58
2021/01/08 08:26:29;;;;;;;67.82;14.60;;;;;;;;;;5050910;28;20059;-58
2021/01/08 08:29:02;;;;;;;67.90;14.52;;;;;;;;;;5066121;28;20120;-59
2021/01/08 08:31:32;;;;;;;60.38;14.52;;;;;;;;;;5064371;28;20051;-59
2021/01/08 08:34:01;;;;;;;59.30;15.02;;;;;;;;;;5054382;28;20114;-58
2021/01/08 08:36:28;;;;;;;69.03;15.88;;;;;;;;;;5056798;28;20131;-59
2021/01/08 08:39:03;;;;;;;64.07;16.83;;;;;;;;;;5053205;28;20032;-58
2021/01/08 08:41:29;;;;;;;56.47;16.25;;;;;;;;;;5064361;28;20498;-58
2021/01/08 08:43:59;;;;;;;57.85;16.50;;;;;;;;;;5068389;28;20480;-58
2021/01/08 08:46:26;;;;;;;57.83;16.58;;;;;;;;;;5055067;28;20044;-59
2021/01/08 08:48:52;;;;;;;55.95;15.80;;;;;;;;;;5058740;28;20057;-58
2021/01/08 08:51:23;;;;;;;49.55;14.70;;;;;;;;;;5059599;28;20108;-58
2021/01/08 08:53:59;;;;;;;53.08;15.68;;;;;;;;;;5060909;28;20052;-58
2021/01/08 08:56:25;;;;;;;55.60;15.77;;;;;;;;;;5050895;28;20040;-59
2021/01/08 08:58:51;;;;;;;48.15;14.70;;;;;;;;;;5058013;28;20106;-59
2021/01/08 09:01:17;;;;;;;47.42;15.07;;;;;;;;;;5059422;28;20790;-59
2021/01/08 09:03:45;;;;;;;42.38;15.15;;;;;;;;;;5056684;28;20044;-58
2021/01/08 09:06:12;;;;;;;44.88;15.35;;;;;;;;;;5056691;28;20059;-59
2021/01/08 09:08:39;;;;;;;39.15;14.30;;;;;;;;;;5031321;28;20075;-59
2021/01/08 09:11:27;;;;;;;38.70;13.75;;;;;;;;;;5037964;28;20040;-58
2021/01/08 09:13:54;;;;;;;43.50;14.57;;;;;;;;;;5067240;28;20032;-58
2021/01/08 09:16:25;;;;;;;38.92;14.20;;;;;;;;;;5042224;28;20033;-59
2021/01/08 09:18:54;;;;;;;40.17;13.93;;;;;;;;;;5055562;28;20504;-59
2021/01/08 09:21:26;;;;;;;34.50;12.82;;;;;;;;;;5057653;28;20064;-59
2021/01/08 09:23:53;;;;;;;39.33;13.98;;;;;;;;;;5057640;28;20043;-58
2021/01/08 09:26:20;;;;;;;37.10;13.13;;;;;;;;;;5029500;28;20051;-58
2021/01/08 09:28:47;;;;;;;39.72;13.50;;;;;;;;;;5054349;28;20049;-59
2021/01/08 09:31:14;;;;;;;37.00;13.13;;;;;;;;;;5062431;28;20048;-58
2021/01/08 09:33:40;;;;;;;37.70;13.30;;;;;;;;;;5058752;28;20047;-59
2021/01/08 09:36:07;;;;;;;35.15;13.45;;;;;;;;;;5034993;28;20051;-58
2021/01/08 09:38:33;;;;;;;33.25;12.77;;;;;;;;;;5055683;28;20044;-59
2021/01/08 09:40:59;;;;;;;37.00;12.90;;;;;;;;;;5062167;28;20502;-58
2021/01/08 09:43:25;;;;;;;32.65;12.48;;;;;;;;;;5062801;28;20035;-59
2021/01/08 09:46:01;;;;;;;32.65;13.40;;;;;;;;;;5055512;28;20572;-59
2021/01/08 09:48:27;;;;;;;31.98;12.48;;;;;;;;;;5056665;28;20600;-58
2021/01/08 09:51:03;;;;;;;33.58;12.40;;;;;;;;;;5064140;28;20040;-59
2021/01/08 09:53:30;;;;;;;32.20;12.68;;;;;;;;;;5064290;28;20033;-59
2021/01/08 09:56:15;;;;;;;33.92;12.88;;;;;;;;;;5058953;28;20044;-59
2021/01/08 09:58:41;;;;;;;34.88;12.40;;;;;;;;;;5053220;28;20036;-59
2021/01/08 10:01:08;;;;;;;35.58;12.88;;;;;;;;;;5057791;28;20044;-59
2021/01/08 10:03:34;;;;;;;33.65;12.07;;;;;;;;;;5056272;28;20670;-58
2021/01/08 10:06:09;;;;;;;30.85;11.55;;;;;;;;;;5054637;28;20406;-59
2021/01/08 10:08:36;;;;;;;26.58;11.82;;;;;;;;;;5057850;28;20115;-58
2021/01/08 10:11:04;;;;;;;31.02;12.18;;;;;;;;;;5054286;28;20029;-58
2021/01/08 10:13:32;;;;;;;28.67;11.35;;;;;;;;;;5066679;28;20159;-58
2021/01/08 10:16:05;;;;;;;27.30;11.18;;;;;;;;;;5059930;28;20131;-58
2021/01/08 10:18:32;;;;;;;24.90;10.68;;;;;;;;;;5053840;28;20544;-58
2021/01/08 10:21:05;;;;;;;21.67;10.15;;;;;;;;;;5052053;28;20036;-58
2021/01/08 10:23:37;;;;;;;28.23;10.73;;;;;;;;;;5058672;28;20037;-58
2021/01/08 10:26:14;;;;;;;22.33;10.05;;;;;;;;;;5059323;28;20170;-58
2021/01/08 10:28:52;;;;;;;23.27;10.02;;;;;;;;;;5061454;28;20147;-58
2021/01/08 10:31:19;;;;;;;25.00;11.25;;;;;;;;;;5062443;28;20475;-58
2021/01/08 10:33:45;;;;;;;22.83;9.90;;;;;;;;;;5062237;28;20052;-58
2021/01/08 10:36:12;;;;;;;19.27;9.70;;;;;;;;;;5066176;28;20495;-58
2021/01/08 10:38:38;;;;;;;19.67;9.75;;;;;;;;;;5059323;28;20047;-58
2021/01/08 10:41:04;;;;;;;23.20;10.30;;;;;;;;;;5055334;28;20045;-58
2021/01/08 10:43:32;;;;;;;23.35;9.82;;;;;;;;;;5057159;28;20571;-58
2021/01/08 10:45:59;;;;;;;17.08;9.60;;;;;;;;;;5055951;28;20032;-58
2021/01/08 10:48:25;;;;;;;20.48;9.55;;;;;;;;;;5054926;28;20608;-58
2021/01/08 10:50:51;;;;;;;18.50;9.23;;;;;;;;;;5052620;28;20075;-58
2021/01/08 10:53:17;;;;;;;16.50;8.55;;;;;;;;;;5056547;28;21802;-58
2021/01/08 10:55:47;;;;;;;21.70;9.90;;;;;;;;;;5048232;28;20822;-58
2021/01/08 10:58:15;;;;;;;19.13;9.18;;;;;;;;;;5051818;28;20064;-58
2021/01/08 11:00:41;;;;;;;19.98;8.93;;;;;;;;;;5053877;28;20040;-58
2021/01/08 11:03:07;;;;;;;16.85;8.57;;;;;;;;;;5048863;28;20055;-58
2021/01/08 11:05:33;;;;;;;16.52;9.00;;;;;;;;;;5050815;28;20391;-58
2021/01/08 11:07:59;;;;;;;17.50;8.45;;;;;;;;;;5056930;28;20242;-58
2021/01/08 11:10:25;;;;;;;17.13;7.72;;;;;;;;;;5059178;28;20041;-57
2021/01/08 11:12:51;;;;;;;20.25;8.48;;;;;;;;;;5053788;28;20075;-58
2021/01/08 11:15:17;;;;;;;13.77;7.43;;;;;;;;;;5059121;28;20135;-58
2021/01/08 11:17:43;;;;;;;15.20;8.35;;;;;;;;;;5055052;28;20036;-57
2021/01/08 11:20:12;;;;;;;16.83;8.95;;;;;;;;;;5056623;28;20054;-58
2021/01/08 11:22:38;;;;;;;20.45;7.78;;;;;;;;;;5049480;28;20040;-58
2021/01/08 11:25:05;;;;;;;15.80;8.27;;;;;;;;;;5056691;28;20482;-58
2021/01/08 11:27:31;;;;;;;20.13;8.20;;;;;;;;;;5055708;28;20044;-58
2021/01/08 11:29:57;;;;;;;17.45;8.70;;;;;;;;;;5057603;28;20052;-58
2021/01/08 11:32:23;;;;;;;19.35;8.88;;;;;;;;;;5052330;28;20106;-58
2021/01/08 11:34:49;;;;;;;23.95;9.85;;;;;;;;;;5052556;28;20036;-59
2021/01/08 11:37:15;;;;;;;16.88;8.75;;;;;;;;;;5063064;28;20494;-59
2021/01/08 11:39:41;;;;;;;20.42;9.25;;;;;;;;;;5054559;28;20043;-59
2021/01/08 11:42:07;;;;;;;18.52;9.02;;;;;;;;;;5056830;28;20585;-59
2021/01/08 11:44:33;;;;;;;18.38;8.80;;;;;;;;;;5052658;28;20044;-61
2021/01/08 11:46:59;;;;;;;16.75;8.02;;;;;;;;;;5048024;28;20142;-60
2021/01/08 11:49:25;;;;;;;15.55;8.13;;;;;;;;;;5051004;28;20044;-59
2021/01/08 11:51:56;;;;;;;16.20;8.70;;;;;;;;;;5052483;28;20044;-60
2021/01/08 11:54:22;;;;;;;20.02;8.75;;;;;;;;;;5048226;28;20043;-60
2021/01/08 11:56:48;;;;;;;17.77;8.63;;;;;;;;;;5054115;28;20040;-60
2021/01/08 11:59:14;;;;;;;17.60;8.73;;;;;;;;;;5051804;28;20036;-59
2021/01/08 12:01:40;;;;;;;20.05;9.23;;;;;;;;;;5061509;28;20070;-60
2021/01/08 12:04:06;;;;;;;17.77;8.63;;;;;;;;;;5059235;28;20033;-60
2021/01/08 12:06:33;;;;;;;25.42;9.60;;;;;;;;;;5054540;28;20429;-60
2021/01/08 12:09:00;;;;;;;15.77;8.05;;;;;;;;;;5047058;28;20042;-60
2021/01/08 12:11:26;;;;;;;21.05;10.23;;;;;;;;;;5055253;28;20036;-60
2021/01/08 12:13:52;;;;;;;22.25;9.32;;;;;;;;;;5065022;28;20051;-59
2021/01/08 12:16:25;;;;;;;18.40;9.80;;;;;;;;;;5051267;28;20157;-59
2021/01/08 12:18:51;;;;;;;19.15;9.50;;;;;;;;;;5051834;28;20128;-60
2021/01/08 12:21:17;;;;;;;23.88;10.93;;;;;;;;;;5053001;28;20397;-60
2021/01/08 12:23:43;;;;;;;22.10;10.93;;;;;;;;;;5058163;28;20064;-59
2021/01/08 12:26:13;;;;;;;26.85;12.32;;;;;;;;;;5061767;28;20496;-59
2021/01/08 12:28:39;;;;;;;27.70;11.45;;;;;;;;;;5028950;28;23714;-59
2021/01/08 12:31:05;;;;;;;24.77;10.70;;;;;;;;;;5058850;28;20044;-59
2021/01/08 12:33:31;;;;;;;23.42;11.07;;;;;;;;;;5054260;28;20040;-59
2021/01/08 12:35:57;;;;;;;23.35;9.98;;;;;;;;;;5059263;28;20032;-59
2021/01/08 12:38:23;;;;;;;19.80;9.85;;;;;;;;;;5058053;28;20032;-59
2021/01/08 12:40:49;;;;;;;21.20;9.57;;;;;;;;;;5056016;28;20071;-59
2021/01/08 12:43:15;;;;;;;20.85;10.55;;;;;;;;;;5047297;28;20573;-60
2021/01/08 12:45:41;;;;;;;21.60;9.80;;;;;;;;;;5049421;28;20036;-60
2021/01/08 12:48:08;;;;;;;22.98;10.35;;;;;;;;;;5049118;28;20541;-60
2021/01/08 12:50:35;;;;;;;25.42;10.38;;;;;;;;;;5049372;28;20037;-59
2021/01/08 12:53:01;;;;;;;20.20;9.07;;;;;;;;;;5054301;28;20054;-59
2021/01/08 12:55:27;;;;;;;26.23;10.25;;;;;;;;;;5048406;28;20600;-59
2021/01/08 12:57:53;;;;;;;23.48;10.57;;;;;;;;;;5054099;28;20044;-62
2021/01/08 13:00:19;;;;;;;23.52;10.82;;;;;;;;;;5048184;28;20619;-60
2021/01/08 13:02:46;;;;;;;24.98;11.32;;;;;;;;;;5054049;28;20166;-60
2021/01/08 13:05:12;;;;;;;31.25;11.45;;;;;;;;;;5049848;28;20482;-60
2021/01/08 13:07:41;;;;;;;23.35;11.45;;;;;;;;;;5053006;28;20466;-59
2021/01/08 13:10:07;;;;;;;22.13;11.13;;;;;;;;;;5034250;28;20490;-59
2021/01/08 13:12:33;;;;;;;29.35;11.20;;;;;;;;;;5056457;28;20047;-59
2021/01/08 13:14:59;;;;;;;27.60;11.63;;;;;;;;;;5058036;28;20525;-59
2021/01/08 13:17:29;;;;;;;21.48;11.05;;;;;;;;;;5054235;28;20044;-59
2021/01/08 13:19:55;;;;;;;26.25;11.30;;;;;;;;;;5051004;28;20110;-59
2021/01/08 13:22:22;;;;;;;32.10;11.73;;;;;;;;;;5054233;28;20036;-59
2021/01/08 13:24:48;;;;;;;23.30;11.68;;;;;;;;;;5054876;28;20032;-59
2021/01/08 13:27:15;;;;;;;26.75;10.77;;;;;;;;;;5056604;28;20032;-59
2021/01/08 13:29:41;;;;;;;26.42;11.63;;;;;;;;;;5053355;28;20051;-59
2021/01/08 13:32:07;;;;;;;25.48;11.07;;;;;;;;;;5048978;28;20452;-59
2021/01/08 13:34:34;;;;;;;27.10;12.05;;;;;;;;;;5047591;28;20032;-59
2021/01/08 13:37:01;;;;;;;26.00;11.93;;;;;;;;;;5050058;28;20104;-59
2021/01/08 13:39:27;;;;;;;24.98;10.88;;;;;;;;;;5047317;28;20051;-59
2021/01/08 13:42:07;;;;;;;23.98;11.15;;;;;;;;;;5054229;28;20671;-59
2021/01/08 13:44:35;;;;;;;23.25;10.68;;;;;;;;;;5046192;28;20113;-59
2021/01/08 13:47:01;;;;;;;20.80;11.00;;;;;;;;;;5055769;28;20036;-59
2021/01/08 13:49:27;;;;;;;25.55;10.20;;;;;;;;;;5046481;28;20135;-59
2021/01/08 13:51:57;;;;;;;23.25;10.82;;;;;;;;;;5047188;28;20036;-59
2021/01/08 13:54:23;;;;;;;23.70;11.23;;;;;;;;;;5053217;28;20036;-59
2021/01/08 13:56:49;;;;;;;22.55;10.35;;;;;;;;;;5022244;28;20036;-59
2021/01/08 13:59:15;;;;;;;34.17;11.55;;;;;;;;;;5062775;28;20040;-59
2021/01/08 14:01:41;;;;;;;27.25;12.05;;;;;;;;;;5067853;28;20047;-59
2021/01/08 14:04:07;;;;;;;27.35;11.93;;;;;;;;;;5056369;28;21200;-58
2021/01/08 14:06:33;;;;;;;26.98;12.75;;;;;;;;;;5048867;28;20390;-59
2021/01/08 14:09:00;;;;;;;25.55;11.43;;;;;;;;;;5056915;28;20040;-59
2021/01/08 14:11:27;;;;;;;29.58;11.93;;;;;;;;;;5049898;28;20078;-58
2021/01/08 14:13:53;;;;;;;27.13;10.73;;;;;;;;;;5053586;28;20112;-58
2021/01/08 14:16:20;;;;;;;22.20;11.00;;;;;;;;;;5060556;28;20045;-59
2021/01/08 14:18:46;;;;;;;27.08;11.98;;;;;;;;;;5023320;28;20040;-59